createdAt,value
2022-08-08T00:00:54.072Z,22.30
2022-08-08T00:02:58.386Z,22.30
2022-08-08T00:05:43.496Z,22.30
2022-08-08T00:08:50.993Z,22.30
2022-08-08T00:11:46.567Z,22.30
2022-08-08T00:14:57.268Z,22.20
2022-08-08T00:18:02.338Z,22.20
2022-08-08T00:20:49.426Z,22.20
2022-08-08T00:23:28.325Z,22.20
2022-08-08T00:26:12.882Z,22.20
2022-08-08T00:28:48.827Z,22.20
2022-08-08T00:32:28.854Z,22.10
2022-08-08T00:34:38.662Z,22.10
2022-08-08T00:37:16.611Z,22.10
2022-08-08T00:41:12.667Z,22.10
2022-08-08T00:43:39.887Z,22.10
2022-08-08T00:46:56.933Z,22.10
2022-08-08T00:49:37.370Z,22.10
2022-08-08T00:52:38.937Z,22.10
2022-08-08T00:55:22.316Z,22.10
2022-08-08T00:58:37.212Z,22.10
2022-08-08T01:02:01.315Z,22.00
2022-08-08T01:05:03.876Z,22.00
2022-08-08T01:07:55.868Z,22.00
2022-08-08T01:11:20.857Z,22.00
2022-08-08T01:14:53.515Z,22.00
2022-08-08T01:17:20.354Z,22.00
2022-08-08T01:20:22.360Z,22.00
2022-08-08T01:24:06.644Z,22.00
2022-08-08T01:26:48.292Z,22.00
2022-08-08T01:29:23.731Z,22.00
2022-08-08T01:32:17.195Z,22.00
2022-08-08T01:34:49.657Z,22.00
2022-08-08T01:37:57.724Z,22.00
2022-08-08T01:40:50.513Z,21.90
2022-08-08T01:43:38.360Z,21.90
2022-08-08T01:46:21.462Z,21.90
2022-08-08T01:49:10.750Z,21.90
2022-08-08T01:52:49.615Z,21.90
2022-08-08T01:55:45.474Z,21.90
2022-08-08T01:58:47.146Z,21.90
2022-08-08T02:01:59.634Z,21.90
2022-08-08T02:04:53.289Z,21.90
2022-08-08T02:07:54.341Z,21.90
2022-08-08T02:11:01.612Z,21.90
2022-08-08T02:13:55.709Z,21.90
2022-08-08T02:16:45.008Z,21.90
2022-08-08T02:19:41.727Z,21.80
2022-08-08T02:22:33.996Z,21.80
2022-08-08T02:25:32.747Z,21.80
2022-08-08T02:28:48.598Z,21.80
2022-08-08T02:31:54.153Z,21.80
2022-08-08T02:35:11.324Z,21.80
2022-08-08T02:38:33.157Z,21.80
2022-08-08T02:41:58.577Z,21.80
2022-08-08T02:44:38.333Z,21.80
2022-08-08T02:47:32.901Z,21.80
2022-08-08T02:50:23.021Z,21.80
2022-08-08T02:53:14.699Z,21.80
2022-08-08T02:56:20.090Z,21.80
2022-08-08T02:59:37.659Z,21.80
2022-08-08T03:02:36.839Z,21.80
2022-08-08T03:05:40.172Z,21.70
2022-08-08T03:08:51.722Z,21.70
2022-08-08T03:12:02.214Z,21.70
2022-08-08T03:16:00.050Z,21.70
2022-08-08T03:18:05.019Z,21.70
2022-08-08T03:20:51.589Z,21.70
2022-08-08T03:23:56.537Z,21.70
2022-08-08T03:26:30.740Z,21.70
2022-08-08T03:29:16.875Z,21.70
2022-08-08T03:32:10.253Z,21.70
2022-08-08T03:34:40.444Z,21.70
2022-08-08T03:37:59.037Z,21.70
2022-08-08T03:40:06.140Z,21.70
2022-08-08T03:42:39.222Z,21.70
2022-08-08T03:46:06.417Z,21.70
2022-08-08T03:48:09.181Z,21.70
2022-08-08T03:50:50.566Z,21.70
2022-08-08T03:53:24.019Z,21.60
2022-08-08T03:56:09.920Z,21.70
2022-08-08T03:58:57.198Z,21.70
2022-08-08T04:02:13.085Z,21.60
2022-08-08T04:04:30.948Z,21.60
2022-08-08T04:07:01.213Z,21.60
2022-08-08T04:09:58.819Z,21.60
2022-08-08T04:12:25.283Z,21.60
2022-08-08T04:14:56.293Z,21.60
2022-08-08T04:17:57.909Z,21.60
2022-08-08T04:20:12.147Z,21.60
2022-08-08T04:22:40.226Z,21.60
2022-08-08T04:25:13.087Z,21.60
2022-08-08T04:28:10.662Z,21.60
2022-08-08T04:30:36.647Z,21.60
2022-08-08T04:33:12.434Z,21.60
2022-08-08T04:35:51.391Z,21.60
2022-08-08T04:38:22.378Z,21.60
2022-08-08T04:40:54.785Z,21.60
2022-08-08T04:43:31.720Z,21.60
2022-08-08T04:46:14.959Z,21.60
2022-08-08T04:48:43.881Z,21.60
2022-08-08T04:51:17.393Z,21.60
2022-08-08T04:54:27.412Z,21.60
2022-08-08T04:56:39.825Z,21.60
2022-08-08T04:59:07.776Z,21.60
2022-08-08T05:01:48.656Z,21.60
2022-08-08T05:04:18.870Z,21.60
2022-08-08T05:06:52.232Z,21.60
2022-08-08T05:09:22.646Z,21.60
2022-08-08T05:11:56.855Z,21.60
2022-08-08T05:14:29.047Z,21.50
2022-08-08T05:17:01.513Z,21.60
2022-08-08T05:20:09.446Z,21.50
2022-08-08T05:22:30.645Z,21.50
2022-08-08T05:25:00.423Z,21.50
2022-08-08T05:27:33.385Z,21.50
2022-08-08T05:30:14.746Z,21.50
2022-08-08T05:32:51.016Z,21.50
2022-08-08T05:35:23.982Z,21.50
2022-08-08T05:38:03.065Z,21.50
2022-08-08T05:40:55.763Z,21.50
2022-08-08T05:43:39.508Z,21.50
2022-08-08T05:46:21.202Z,21.50
2022-08-08T05:48:54.659Z,21.50
2022-08-08T05:51:26.360Z,21.50
2022-08-08T05:54:26.687Z,21.50
2022-08-08T05:56:47.276Z,21.50
2022-08-08T05:59:58.801Z,21.50
2022-08-08T06:02:43.711Z,21.60
2022-08-08T06:05:33.868Z,21.60
2022-08-08T06:08:09.566Z,21.50
2022-08-08T06:10:41.285Z,21.60
2022-08-08T06:13:12.445Z,21.50
2022-08-08T06:15:51.444Z,21.50
2022-08-08T06:18:41.809Z,21.50
2022-08-08T06:21:33.337Z,21.50
2022-08-08T06:24:03.580Z,21.50
2022-08-08T06:26:45.465Z,21.50
2022-08-08T06:29:56.707Z,21.50
2022-08-08T06:32:29.990Z,21.50
2022-08-08T06:36:06.030Z,21.50
2022-08-08T06:38:09.284Z,21.50
2022-08-08T06:40:48.463Z,21.50
2022-08-08T06:43:28.844Z,21.50
2022-08-08T06:46:12.680Z,21.50
2022-08-08T06:48:43.634Z,21.50
2022-08-08T06:51:15.902Z,21.50
2022-08-08T06:53:51.381Z,21.40
2022-08-08T06:56:26.361Z,21.50
2022-08-08T06:58:54.800Z,21.50
2022-08-08T07:02:17.356Z,21.50
2022-08-08T07:04:55.981Z,21.50
2022-08-08T07:08:09.748Z,21.50
2022-08-08T07:10:47.846Z,21.50
2022-08-08T07:13:18.454Z,21.50
2022-08-08T07:16:07.166Z,21.50
2022-08-08T07:19:14.868Z,21.50
2022-08-08T07:22:04.988Z,21.50
2022-08-08T07:24:44.985Z,21.50
2022-08-08T07:27:17.117Z,21.50
2022-08-08T07:30:00.291Z,21.50
2022-08-08T07:32:35.601Z,21.50
2022-08-08T07:35:08.673Z,21.50
2022-08-08T07:37:56.376Z,21.60
2022-08-08T07:40:40.175Z,21.60
2022-08-08T07:43:12.972Z,21.50
2022-08-08T07:46:05.585Z,21.50
2022-08-08T07:48:35.772Z,21.60
2022-08-08T07:51:04.851Z,21.60
2022-08-08T07:54:03.533Z,21.60
2022-08-08T07:56:50.119Z,21.60
2022-08-08T07:59:21.308Z,21.60
2022-08-08T08:02:33.020Z,21.60
2022-08-08T08:04:52.375Z,21.60
2022-08-08T08:07:26.272Z,21.60
2022-08-08T08:10:05.558Z,21.60
2022-08-08T08:12:42.236Z,21.60
2022-08-08T08:15:15.735Z,21.60
2022-08-08T08:17:48.382Z,21.60
2022-08-08T08:20:26.419Z,21.60
2022-08-08T08:22:59.629Z,21.60
2022-08-08T08:25:42.791Z,21.60
2022-08-08T08:28:21.228Z,21.60
2022-08-08T08:30:55.632Z,21.60
2022-08-08T08:33:26.534Z,21.60
2022-08-08T08:36:20.111Z,21.60
2022-08-08T08:38:49.242Z,21.70
2022-08-08T08:41:24.076Z,21.70
2022-08-08T08:44:13.333Z,21.70
2022-08-08T08:46:47.244Z,21.70
2022-08-08T08:49:20.403Z,21.70
2022-08-08T08:51:54.292Z,21.70
2022-08-08T08:54:25.648Z,21.70
2022-08-08T08:56:56.009Z,21.70
2022-08-08T08:59:58.802Z,21.70
2022-08-08T09:02:24.660Z,21.70
2022-08-08T09:05:04.220Z,21.70
2022-08-08T09:07:39.224Z,21.70
2022-08-08T09:10:22.772Z,21.70
2022-08-08T09:12:56.938Z,21.80
2022-08-08T09:15:41.518Z,21.80
2022-08-08T09:18:13.079Z,21.80
2022-08-08T09:22:01.168Z,21.80
2022-08-08T09:23:33.531Z,21.80
2022-08-08T09:26:41.563Z,21.80
2022-08-08T09:29:24.804Z,21.80
2022-08-08T09:32:12.110Z,21.80
2022-08-08T09:34:51.345Z,21.80
2022-08-08T09:37:34.118Z,21.80
2022-08-08T09:40:21.625Z,21.80
2022-08-08T09:42:55.438Z,21.80
2022-08-08T09:45:54.661Z,21.80
2022-08-08T09:48:35.672Z,21.80
2022-08-08T09:51:05.684Z,21.90
2022-08-08T09:54:09.435Z,21.90
2022-08-08T09:56:47.238Z,21.90
2022-08-08T10:00:02.188Z,21.90
2022-08-08T10:02:23.444Z,21.90
2022-08-08T10:04:52.907Z,21.90
2022-08-08T10:07:20.530Z,22.00
2022-08-08T10:09:59.714Z,22.00
2022-08-08T10:12:54.232Z,22.00
2022-08-08T10:15:27.526Z,22.00
2022-08-08T10:18:08.988Z,22.00
2022-08-08T10:20:57.977Z,22.00
2022-08-08T10:24:03.190Z,22.10
2022-08-08T10:26:57.070Z,22.10
2022-08-08T10:29:58.367Z,22.10
2022-08-08T10:32:48.391Z,22.10
2022-08-08T10:36:06.507Z,22.10
2022-08-08T10:38:13.599Z,22.10
2022-08-08T10:40:45.979Z,22.10
2022-08-08T10:43:14.401Z,22.10
2022-08-08T10:45:56.386Z,22.20
2022-08-08T10:48:57.431Z,22.20
2022-08-08T10:51:31.176Z,22.20
2022-08-08T10:54:10.426Z,22.20
2022-08-08T10:56:43.283Z,22.20
2022-08-08T10:59:14.656Z,22.20
2022-08-08T11:01:49.416Z,22.20
2022-08-08T11:04:38.727Z,22.20
2022-08-08T11:07:07.501Z,22.20
2022-08-08T11:09:48.724Z,22.30
2022-08-08T11:12:16.254Z,22.30
2022-08-08T11:14:57.388Z,22.30
2022-08-08T11:18:01.000Z,22.30
2022-08-08T11:20:28.035Z,22.30
2022-08-08T11:22:57.822Z,22.30
2022-08-08T11:25:52.237Z,22.40
2022-08-08T11:28:23.230Z,22.40
2022-08-08T11:30:57.253Z,22.40
2022-08-08T11:33:50.999Z,22.40
2022-08-08T11:36:15.890Z,22.40
2022-08-08T11:38:54.616Z,22.40
2022-08-08T11:41:32.434Z,22.40
2022-08-08T11:44:02.180Z,22.50
2022-08-08T11:46:32.576Z,22.50
2022-08-08T11:49:09.251Z,22.50
2022-08-08T11:51:49.572Z,22.50
2022-08-08T11:54:33.647Z,22.50
2022-08-08T11:57:35.149Z,22.50
2022-08-08T12:00:07.550Z,22.60
2022-08-08T12:02:57.507Z,22.60
2022-08-08T12:05:41.035Z,22.60
2022-08-08T12:08:08.587Z,22.60
2022-08-08T12:10:50.122Z,22.60
2022-08-08T12:13:38.395Z,22.70
2022-08-08T12:16:16.645Z,22.70
2022-08-08T12:18:53.321Z,22.70
2022-08-08T12:22:00.211Z,22.70
2022-08-08T12:24:17.460Z,22.80
2022-08-08T12:26:49.902Z,22.80
2022-08-08T12:29:40.758Z,22.80
2022-08-08T12:32:25.922Z,22.80
2022-08-08T12:35:04.790Z,22.80
2022-08-08T12:38:01.152Z,22.80
2022-08-08T12:40:54.049Z,22.90
2022-08-08T12:43:47.521Z,22.90
2022-08-08T12:46:25.382Z,22.90
2022-08-08T12:49:22.013Z,22.90
2022-08-08T12:51:50.137Z,22.90
2022-08-08T12:54:37.770Z,22.90
2022-08-08T12:57:25.989Z,23.00
2022-08-08T13:00:05.144Z,23.00
2022-08-08T13:02:42.251Z,23.00
2022-08-08T13:05:26.379Z,23.00
2022-08-08T13:08:22.130Z,23.00
2022-08-08T13:10:58.577Z,23.00
2022-08-08T13:13:37.036Z,23.00
2022-08-08T13:16:25.605Z,23.00
2022-08-08T13:19:01.633Z,23.00
2022-08-08T13:21:55.336Z,23.10
2022-08-08T13:24:40.713Z,23.10
2022-08-08T13:27:15.233Z,23.10
2022-08-08T13:29:57.970Z,23.10
2022-08-08T13:32:35.352Z,23.20
2022-08-08T13:35:11.714Z,23.20
2022-08-08T13:38:06.222Z,23.20
2022-08-08T13:40:35.905Z,23.20
2022-08-08T13:43:08.806Z,23.30
2022-08-08T13:45:37.640Z,23.30
2022-08-08T13:48:14.539Z,23.30
2022-08-08T13:50:55.278Z,23.30
2022-08-08T13:53:34.221Z,23.30
2022-08-08T13:56:11.840Z,23.40
2022-08-08T13:58:57.491Z,23.40
2022-08-08T14:01:42.045Z,23.50
2022-08-08T14:04:24.355Z,23.50
2022-08-08T14:07:03.469Z,23.50
2022-08-08T14:10:05.227Z,23.50
2022-08-08T14:12:35.103Z,23.50
2022-08-08T14:15:05.596Z,23.60
2022-08-08T14:17:59.180Z,23.60
2022-08-08T14:20:56.490Z,23.60
2022-08-08T14:24:04.077Z,23.70
2022-08-08T14:26:28.067Z,23.70
2022-08-08T14:29:00.333Z,23.70
2022-08-08T14:32:05.567Z,23.70
2022-08-08T14:34:23.178Z,23.80
2022-08-08T14:36:54.494Z,23.70
2022-08-08T14:39:25.029Z,23.80
2022-08-08T14:42:11.971Z,23.80
2022-08-08T14:44:55.826Z,23.80
2022-08-08T14:47:25.652Z,23.90
2022-08-08T14:50:14.886Z,23.90
2022-08-08T14:53:04.392Z,23.90
2022-08-08T14:55:41.243Z,23.90
2022-08-08T14:58:11.952Z,24.00
2022-08-08T15:00:45.464Z,24.00
2022-08-08T15:03:17.355Z,24.10
2022-08-08T15:05:53.957Z,24.10
2022-08-08T15:08:35.385Z,24.10
2022-08-08T15:11:14.497Z,24.10
2022-08-08T15:14:01.110Z,24.10
2022-08-08T15:16:34.324Z,24.10
2022-08-08T15:19:03.608Z,24.10
2022-08-08T15:21:31.086Z,24.20
2022-08-08T15:23:59.442Z,24.20
2022-08-08T15:26:28.893Z,24.30
2022-08-08T15:28:57.680Z,24.30
2022-08-08T15:31:55.670Z,24.30
2022-08-08T15:34:30.105Z,24.30
2022-08-08T15:37:03.030Z,24.30
2022-08-08T15:39:38.160Z,24.30
2022-08-08T15:42:10.284Z,24.30
2022-08-08T15:44:42.043Z,24.30
2022-08-08T15:47:15.812Z,24.30
2022-08-08T15:49:48.550Z,24.30
2022-08-08T15:52:18.115Z,24.40
2022-08-08T15:54:51.660Z,24.40
2022-08-08T15:57:24.291Z,24.40
2022-08-08T16:00:05.913Z,24.40
2022-08-08T16:02:50.212Z,24.40
2022-08-08T16:05:23.465Z,24.40
2022-08-08T16:07:53.895Z,24.40
2022-08-08T16:13:28.301Z,24.40
2022-08-08T16:13:33.512Z,24.40
2022-08-08T16:16:09.601Z,24.40
2022-08-08T16:18:57.453Z,24.30
2022-08-08T16:21:30.855Z,24.30
2022-08-08T16:24:01.434Z,24.30
2022-08-08T16:26:33.924Z,24.30
2022-08-08T16:29:09.072Z,24.30
2022-08-08T16:31:41.068Z,24.30
2022-08-08T16:34:10.307Z,24.30
2022-08-08T16:36:40.754Z,24.30
2022-08-08T16:39:27.934Z,24.20
2022-08-08T16:42:01.210Z,24.30
2022-08-08T16:44:34.242Z,24.20
2022-08-08T16:47:39.881Z,24.20
2022-08-08T16:50:20.039Z,24.20
2022-08-08T16:55:01.399Z,24.20
2022-08-08T16:55:55.915Z,24.20
2022-08-08T16:58:32.399Z,24.10
2022-08-08T17:01:10.735Z,24.10
2022-08-08T17:03:58.712Z,24.10
2022-08-08T17:06:37.148Z,24.10
2022-08-08T17:09:07.455Z,24.10
2022-08-08T17:11:48.685Z,24.10
2022-08-08T17:14:19.516Z,24.10
2022-08-08T17:16:57.834Z,24.10
2022-08-08T17:19:28.973Z,24.10
2022-08-08T17:22:01.285Z,24.10
2022-08-08T17:24:33.310Z,24.10
2022-08-08T17:27:02.796Z,24.10
2022-08-08T17:29:36.292Z,24.10
2022-08-08T17:32:10.718Z,24.10
2022-08-08T17:35:14.593Z,24.10
2022-08-08T17:37:28.703Z,24.10
2022-08-08T17:40:12.967Z,24.10
2022-08-08T17:42:47.416Z,24.00
2022-08-08T17:45:23.960Z,24.00
2022-08-08T17:47:54.139Z,24.00
2022-08-08T17:50:22.817Z,24.00
2022-08-08T17:52:50.934Z,24.00
2022-08-08T17:56:05.336Z,24.00
2022-08-08T17:58:06.537Z,23.90
2022-08-08T18:00:41.029Z,23.90
2022-08-08T18:03:13.316Z,24.00
2022-08-08T18:05:48.315Z,24.00
2022-08-08T18:08:25.301Z,23.90
2022-08-08T18:11:16.495Z,23.90
2022-08-08T18:13:48.070Z,23.90
2022-08-08T18:16:17.146Z,23.90
2022-08-08T18:18:54.072Z,23.90
2022-08-08T18:21:59.546Z,23.90
2022-08-08T18:24:19.404Z,23.90
2022-08-08T18:26:54.442Z,23.90
2022-08-08T18:29:29.788Z,23.90
2022-08-08T18:32:03.614Z,23.90
2022-08-08T18:34:32.905Z,23.90
2022-08-08T18:37:08.483Z,23.90
2022-08-08T18:39:41.209Z,23.90
2022-08-08T18:42:16.410Z,23.90
2022-08-08T18:44:55.675Z,23.90
2022-08-08T18:47:31.458Z,23.90
2022-08-08T18:50:03.169Z,23.90
2022-08-08T18:52:36.635Z,23.90
2022-08-08T18:55:10.123Z,23.90
2022-08-08T18:57:44.822Z,23.90
2022-08-08T19:00:20.253Z,23.90
2022-08-08T19:02:56.388Z,23.90
2022-08-08T19:05:34.617Z,23.90
2022-08-08T19:08:24.558Z,23.90
2022-08-08T19:11:01.331Z,23.90
2022-08-08T19:13:53.947Z,23.80
2022-08-08T19:16:19.942Z,23.90
2022-08-08T19:19:02.242Z,23.90
2022-08-08T19:21:33.865Z,23.90
2022-08-08T19:24:42.382Z,23.90
2022-08-08T19:27:14.943Z,23.90
2022-08-08T19:29:45.975Z,23.90
2022-08-08T19:32:19.527Z,23.90
2022-08-08T19:34:51.413Z,23.90
2022-08-08T19:37:43.800Z,23.90
2022-08-08T19:40:17.698Z,23.90
2022-08-08T19:42:50.550Z,23.90
2022-08-08T19:45:57.232Z,23.90
2022-08-08T19:48:07.948Z,23.90
2022-08-08T19:50:54.131Z,23.90
2022-08-08T19:53:50.983Z,23.80
2022-08-08T19:56:12.063Z,23.80
2022-08-08T19:58:40.328Z,23.80
2022-08-08T20:01:17.415Z,23.80
2022-08-08T20:04:02.018Z,23.80
2022-08-08T20:06:30.698Z,23.80
2022-08-08T20:08:58.815Z,23.80
2022-08-08T20:11:31.999Z,23.80
2022-08-08T20:14:12.766Z,23.80
2022-08-08T20:16:46.965Z,23.80
2022-08-08T20:19:17.501Z,23.80
2022-08-08T20:21:44.969Z,23.80
2022-08-08T20:24:13.490Z,23.80
2022-08-08T20:26:41.786Z,23.80
2022-08-08T20:29:14.646Z,23.80
2022-08-08T20:32:08.097Z,23.70
2022-08-08T20:34:32.019Z,23.70
2022-08-08T20:37:03.810Z,23.70
2022-08-08T20:39:41.838Z,23.60
2022-08-08T20:42:29.271Z,23.60
2022-08-08T20:44:58.346Z,23.60
2022-08-08T20:47:26.325Z,23.60
2022-08-08T20:49:57.580Z,23.50
2022-08-08T20:52:28.147Z,23.50
2022-08-08T20:54:56.970Z,23.50
2022-08-08T20:57:27.156Z,23.50
2022-08-08T20:59:55.936Z,23.50
2022-08-08T21:02:26.119Z,23.50
2022-08-08T21:05:01.178Z,23.40
2022-08-08T21:07:47.688Z,23.40
2022-08-08T21:10:20.806Z,23.40
2022-08-08T21:12:54.285Z,23.40
2022-08-08T21:16:05.063Z,23.40
2022-08-08T21:18:13.768Z,23.40
2022-08-08T21:20:42.311Z,23.30
2022-08-08T21:23:13.327Z,23.40
2022-08-08T21:25:49.039Z,23.30
2022-08-08T21:28:19.553Z,23.30
2022-08-08T21:31:21.749Z,23.30
2022-08-08T21:33:49.936Z,23.30
2022-08-08T21:36:20.909Z,23.30
2022-08-08T21:38:55.820Z,23.30
2022-08-08T21:41:38.212Z,23.30
2022-08-08T21:44:12.620Z,23.30
2022-08-08T21:48:02.089Z,23.20
2022-08-08T21:49:31.112Z,23.20
2022-08-08T21:54:33.577Z,23.20
2022-08-08T21:55:02.599Z,23.20
2022-08-08T21:57:42.473Z,23.20
2022-08-08T22:00:14.703Z,23.20
2022-08-08T22:02:44.362Z,23.20
2022-08-08T22:05:14.828Z,23.20
2022-08-08T22:07:44.320Z,23.20
2022-08-08T22:10:18.162Z,23.10
2022-08-08T22:13:16.619Z,23.10
2022-08-08T22:15:59.156Z,23.10
2022-08-08T22:18:33.438Z,23.10
2022-08-08T22:21:14.632Z,23.10
2022-08-08T22:23:49.448Z,23.10
2022-08-08T22:26:29.598Z,23.10
2022-08-08T22:29:15.113Z,23.10
2022-08-08T22:32:01.580Z,23.00
2022-08-08T22:34:39.284Z,23.00
2022-08-08T22:37:14.802Z,23.00
2022-08-08T22:40:01.102Z,23.00
2022-08-08T22:42:34.885Z,23.00
2022-08-08T22:45:05.406Z,23.00
2022-08-08T22:47:46.884Z,23.00
2022-08-08T22:50:26.490Z,23.00
2022-08-08T22:54:30.028Z,23.00
2022-08-08T22:55:58.517Z,23.00
2022-08-08T22:58:30.950Z,23.00
2022-08-08T23:01:00.417Z,22.90
2022-08-08T23:03:33.989Z,22.90
2022-08-08T23:06:17.261Z,22.90
2022-08-08T23:08:55.888Z,22.90
2022-08-08T23:12:17.390Z,22.90
2022-08-08T23:14:18.878Z,22.90
2022-08-08T23:16:54.359Z,22.90
2022-08-08T23:19:27.179Z,22.90
2022-08-08T23:21:54.692Z,22.90
2022-08-08T23:24:23.549Z,22.90
2022-08-08T23:26:55.457Z,22.90
2022-08-08T23:29:31.157Z,22.90
2022-08-08T23:31:59.065Z,22.90
2022-08-08T23:34:26.545Z,22.80
2022-08-08T23:36:57.922Z,22.80
2022-08-08T23:39:31.925Z,22.80
2022-08-08T23:42:03.001Z,22.80
2022-08-08T23:44:31.838Z,22.80
2022-08-08T23:49:00.925Z,22.80
2022-08-08T23:50:03.078Z,22.80
2022-08-08T23:52:33.668Z,22.80
2022-08-08T23:55:14.098Z,22.80
2022-08-08T23:57:52.294Z,22.80
